Time;durP1;ratioP1;P1;durP2;ratioP2;P2;SDS_P1;SDS_P2;PMS_P1;PMS_P2;Temp;Humidity;BMP_temperature;BMP_pressure;BME280_temperature;BME280_humidity;BME280_pressure;Samples;Min_cycle;Max_cycle;Signal;HPM_P1;HPM_P2
2022/03/10 07:59:27;;;;;;;11.25;6.30;;;;;;;15.25;29.49;102127.50;5009487;27;20405;-72
2022/03/10 08:01:56;;;;;;;12.25;6.97;;;;;;;15.02;29.26;102118.63;4965240;28;20078;-70
2022/03/10 08:04:23;;;;;;;11.68;5.70;;;;;;;13.90;31.22;102128.84;4960676;28;20043;-72
2022/03/10 08:06:50;;;;;;;9.77;6.22;;;;;;;14.07;32.22;102125.84;4962357;28;20043;-72
2022/03/10 08:09:16;;;;;;;12.43;6.13;;;;;;;14.74;29.76;102123.47;4967033;28;20050;-71
2022/03/10 08:11:44;;;;;;;11.77;5.70;;;;;;;14.46;31.77;102123.81;4958145;28;20055;-69
2022/03/10 08:14:11;;;;;;;13.95;6.72;;;;;;;14.57;30.70;102122.06;4964380;28;20046;-71
2022/03/10 08:16:40;;;;;;;11.07;5.30;;;;;;;15.07;30.69;102120.94;4957209;28;20035;-69
2022/03/10 08:19:09;;;;;;;12.57;6.50;;;;;;;16.31;28.39;102120.63;4976050;28;20057;-70
2022/03/10 08:21:35;;;;;;;11.32;5.68;;;;;;;16.73;27.23;102117.13;4964167;28;20073;-71
2022/03/10 08:24:04;;;;;;;9.15;5.22;;;;;;;16.69;26.49;102121.00;4980463;28;20051;-70
2022/03/10 08:26:31;;;;;;;11.63;5.53;;;;;;;17.23;26.23;102108.41;4953494;28;20073;-72
2022/03/10 08:28:58;;;;;;;12.68;5.97;;;;;;;16.56;27.53;102114.19;4962861;28;20058;-69
2022/03/10 08:31:24;;;;;;;11.40;5.28;;;;;;;16.16;28.15;102105.09;4965986;28;20045;-71
2022/03/10 08:33:52;;;;;;;14.35;5.38;;;;;;;15.75;29.04;102104.06;4958615;28;20031;-71
2022/03/10 08:36:19;;;;;;;10.70;5.57;;;;;;;16.79;26.96;102105.97;4960759;28;20133;-71
2022/03/10 08:38:46;;;;;;;8.82;5.43;;;;;;;16.08;28.53;102097.75;4979092;28;20078;-71
2022/03/10 08:41:12;;;;;;;15.48;6.68;;;;;;;16.73;27.80;102100.38;4962851;28;20082;-71
2022/03/10 08:43:39;;;;;;;11.18;5.43;;;;;;;16.27;27.62;102097.09;4964894;28;20050;-72
2022/03/10 08:46:06;;;;;;;8.90;5.85;;;;;;;15.69;29.62;102097.44;4966577;28;20042;-71
2022/03/10 08:48:34;;;;;;;12.15;6.43;;;;;;;16.46;28.06;102090.19;4963926;28;20146;-73
2022/03/10 08:51:03;;;;;;;11.85;6.32;;;;;;;15.67;29.18;102093.22;4962036;28;20137;-72
2022/03/10 08:53:31;;;;;;;9.50;6.32;;;;;;;14.96;29.28;102092.63;4966714;28;20047;-72
2022/03/10 08:55:58;;;;;;;9.98;5.70;;;;;;;14.18;30.70;102102.13;4963467;28;20046;-71
2022/03/10 08:58:25;;;;;;;14.68;5.88;;;;;;;14.82;32.09;102094.63;4964031;28;20050;-71
2022/03/10 09:00:51;;;;;;;12.68;6.82;;;;;;;15.10;30.79;102094.25;4957296;28;20046;-70
2022/03/10 09:03:18;;;;;;;9.90;5.78;;;;;;;14.72;30.70;102094.50;4964308;28;20055;-71
2022/03/10 09:05:46;;;;;;;10.10;5.65;;;;;;;15.49;29.99;102084.94;4962794;28;20042;-72
2022/03/10 09:08:14;;;;;;;9.98;6.10;;;;;;;14.81;31.58;102083.22;4958861;28;20037;-71
2022/03/10 09:10:41;;;;;;;13.15;6.75;;;;;;;14.80;32.13;102086.81;4946157;28;20129;-70
2022/03/10 09:13:07;;;;;;;14.38;7.25;;;;;;;14.70;30.76;102090.25;4952172;28;20048;-71
2022/03/10 09:15:35;;;;;;;11.75;6.47;;;;;;;15.19;30.95;102080.25;4949987;28;20502;-75
2022/03/10 09:18:02;;;;;;;12.82;6.80;;;;;;;14.70;29.98;102069.94;4946045;28;20074;-73
2022/03/10 09:20:29;;;;;;;11.57;6.25;;;;;;;14.14;31.97;102079.53;4953101;28;20038;-71
2022/03/10 09:22:56;;;;;;;9.85;5.63;;;;;;;13.71;32.85;102070.31;4948002;28;20046;-72
2022/03/10 09:25:23;;;;;;;11.45;6.25;;;;;;;14.55;33.00;102075.53;4950043;28;20039;-72
2022/03/10 09:27:50;;;;;;;14.02;6.75;;;;;;;13.72;32.59;102064.94;4950187;28;20046;-71
2022/03/10 09:30:17;;;;;;;10.27;5.93;;;;;;;14.11;32.98;102069.19;4948626;28;20042;-73
2022/03/10 09:32:44;;;;;;;13.02;6.15;;;;;;;14.16;34.70;102064.41;4958847;28;20035;-70
2022/03/10 09:35:13;;;;;;;13.52;6.55;;;;;;;14.34;32.77;102068.34;4959099;28;20047;-74
2022/03/10 09:37:40;;;;;;;12.13;7.15;;;;;;;14.41;33.07;102072.19;4951640;28;20039;-73
2022/03/10 09:40:08;;;;;;;11.48;6.03;;;;;;;14.62;31.76;102067.03;4948306;28;20055;-72
2022/03/10 09:42:37;;;;;;;19.42;6.88;;;;;;;14.84;32.17;102066.25;4945406;28;20050;-73
2022/03/10 09:45:07;;;;;;;16.15;7.00;;;;;;;14.55;30.85;102064.94;4949473;28;20066;-74
2022/03/10 09:47:35;;;;;;;13.20;6.55;;;;;;;14.67;30.87;102064.88;4954809;28;20039;-73
2022/03/10 09:50:05;;;;;;;11.02;5.85;;;;;;;14.72;31.10;102064.53;4948812;28;20063;-72
2022/03/10 09:52:32;;;;;;;14.27;7.05;;;;;;;15.41;30.91;102057.34;4947223;28;20669;-76
2022/03/10 09:54:59;;;;;;;14.40;6.93;;;;;;;15.44;30.95;102057.09;4954531;28;20043;-70
2022/03/10 09:57:26;;;;;;;11.00;6.55;;;;;;;15.71;30.17;102054.94;4951115;28;20074;-72
2022/03/10 09:59:57;;;;;;;11.38;6.00;;;;;;;15.37;30.12;102053.25;4946018;28;20127;-71
2022/03/10 10:02:24;;;;;;;12.80;6.57;;;;;;;14.68;30.54;102055.97;4949516;28;20061;-71
2022/03/10 10:04:51;;;;;;;13.73;6.53;;;;;;;14.53;32.23;102056.28;4956102;28;20587;-71
2022/03/10 10:07:21;;;;;;;11.25;6.45;;;;;;;14.82;31.23;102053.13;4948103;28;20055;-70
2022/03/10 10:09:51;;;;;;;12.07;6.03;;;;;;;14.77;30.88;102047.34;4952467;28;20071;-71
2022/03/10 10:12:22;;;;;;;14.75;6.82;;;;;;;14.73;31.55;102045.06;4951895;28;20130;-71
2022/03/10 10:14:50;;;;;;;17.25;7.15;;;;;;;14.51;31.01;102056.41;4952060;28;20078;-71
2022/03/10 10:17:26;;;;;;;14.20;7.28;;;;;;;15.29;30.40;102042.44;4953265;28;20051;-72
2022/03/10 10:19:58;;;;;;;10.75;6.25;;;;;;;15.42;30.92;102048.44;4964015;28;20039;-74
2022/03/10 10:22:25;;;;;;;13.55;7.55;;;;;;;15.56;31.14;102050.81;4947747;28;20046;-72
2022/03/10 10:24:53;;;;;;;16.48;7.53;;;;;;;15.74;30.40;102044.06;4945665;28;20427;-73
2022/03/10 10:27:21;;;;;;;12.82;6.55;;;;;;;15.62;30.11;102048.53;4943317;28;20051;-72
2022/03/10 10:29:50;;;;;;;17.08;7.38;;;;;;;15.33;29.77;102041.22;4945861;28;20125;-71
2022/03/10 10:32:34;;;;;;;16.63;6.93;;;;;;;15.59;30.68;102032.91;4950785;28;20042;-73
2022/03/10 10:35:02;;;;;;;14.90;6.70;;;;;;;15.92;32.00;102037.31;4945374;28;20043;-72
2022/03/10 10:37:29;;;;;;;17.33;7.60;;;;;;;15.75;30.58;102038.69;4947848;28;20051;-71
2022/03/10 10:39:58;;;;;;;15.90;8.23;;;;;;;16.11;30.29;102039.19;4945019;28;20047;-71
2022/03/10 10:42:29;;;;;;;13.43;6.95;;;;;;;16.37;29.74;102037.91;4946463;28;20047;-73
2022/03/10 10:44:57;;;;;;;15.70;7.13;;;;;;;15.89;30.40;102032.25;4948080;28;20086;-71
2022/03/10 10:47:24;;;;;;;12.80;6.72;;;;;;;16.08;31.78;102034.13;4946139;28;20050;-71
2022/03/10 10:50:04;;;;;;;17.02;7.50;;;;;;;16.64;29.67;102025.00;4947054;28;20090;-72
2022/03/10 10:52:38;;;;;;;12.68;6.95;;;;;;;16.41;30.33;102036.69;4943899;28;20074;-72
2022/03/10 10:55:06;;;;;;;14.57;7.22;;;;;;;16.60;30.19;102023.59;4945664;28;20122;-74
2022/03/10 10:57:35;;;;;;;24.98;7.70;;;;;;;16.95;30.75;102013.47;4948098;28;20074;-73
2022/03/10 11:00:08;;;;;;;14.32;7.15;;;;;;;16.96;30.49;102007.19;4951890;28;20062;-69
2022/03/10 11:02:36;;;;;;;14.80;6.80;;;;;;;16.80;29.44;102017.44;4945191;28;20470;-73
2022/03/10 11:05:08;;;;;;;13.30;7.53;;;;;;;16.84;30.71;102015.34;4946572;28;20051;-72
2022/03/10 11:07:35;;;;;;;15.52;7.22;;;;;;;16.69;29.71;102020.16;4944154;28;20043;-71
2022/03/10 11:10:04;;;;;;;15.65;7.32;;;;;;;16.53;30.89;102009.16;4951789;28;20120;-74
2022/03/10 11:12:31;;;;;;;13.18;7.30;;;;;;;16.69;30.40;102011.34;4948690;28;20039;-72
2022/03/10 11:14:58;;;;;;;17.33;7.13;;;;;;;17.30;29.55;102009.50;4950284;28;20422;-72
2022/03/10 11:17:26;;;;;;;15.02;7.82;;;;;;;16.80;30.71;102013.94;4947118;28;20047;-72
2022/03/10 11:19:57;;;;;;;14.23;7.47;;;;;;;17.06;30.23;102002.78;4943012;28;20083;-70
2022/03/10 11:22:47;;;;;;;18.77;7.50;;;;;;;17.08;30.12;101993.69;4947180;28;20258;-71
2022/03/10 11:25:24;;;;;;;13.00;6.80;;;;;;;17.05;30.77;102001.94;4951106;28;20051;-71
2022/03/10 11:27:52;;;;;;;13.93;6.63;;;;;;;17.18;29.88;101991.09;4948367;28;20045;-71
2022/03/10 11:30:24;;;;;;;14.10;6.82;;;;;;;16.86;30.56;101994.84;4947039;28;20129;-73
2022/03/10 11:33:01;;;;;;;13.63;6.07;;;;;;;16.86;31.42;101995.69;4949964;28;20051;-70
2022/03/10 11:35:30;;;;;;;15.95;7.57;;;;;;;16.87;30.49;101992.03;4943285;28;21728;-71
2022/03/10 11:37:58;;;;;;;16.48;7.68;;;;;;;16.95;30.84;101989.56;4944326;28;20168;-70
2022/03/10 11:40:48;;;;;;;15.00;7.70;;;;;;;17.45;30.56;101980.72;4946844;28;20157;-72
2022/03/10 11:43:31;;;;;;;17.98;8.27;;;;;;;17.93;30.69;101977.22;4946715;28;20130;-72
2022/03/10 11:46:18;;;;;;;13.75;7.13;;;;;;;18.36;30.33;101975.03;4966171;28;20142;-72
2022/03/10 11:48:45;;;;;;;14.40;7.57;;;;;;;18.05;29.65;101976.13;4965642;28;20045;-72
2022/03/10 11:51:19;;;;;;;16.73;7.97;;;;;;;18.39;29.68;101972.94;4945453;28;20067;-70
2022/03/10 11:54:06;;;;;;;17.52;7.10;;;;;;;18.06;29.57;101975.97;4946657;28;20110;-75
2022/03/10 11:56:50;;;;;;;20.08;7.97;;;;;;;18.11;29.20;101968.41;4947758;28;20102;-72
2022/03/10 11:59:18;;;;;;;15.00;6.82;;;;;;;17.86;30.14;101968.13;4943079;28;20050;-73
2022/03/10 12:01:44;;;;;;;16.15;7.00;;;;;;;18.10;29.86;101969.38;4952193;28;20090;-71
2022/03/10 12:04:13;;;;;;;14.00;6.80;;;;;;;18.04;30.16;101961.97;4951379;28;20046;-73
2022/03/10 12:06:48;;;;;;;12.20;6.35;;;;;;;18.50;29.91;101954.16;4950101;28;20047;-71
2022/03/10 12:09:29;;;;;;;16.27;7.30;;;;;;;17.83;29.73;101958.59;4948960;28;20043;-72
2022/03/10 12:11:56;;;;;;;18.05;7.15;;;;;;;17.87;29.56;101960.00;4946515;28;20039;-73
2022/03/10 12:14:26;;;;;;;14.68;7.40;;;;;;;18.05;30.17;101958.34;4950869;28;20066;-72
2022/03/10 12:16:52;;;;;;;13.90;6.25;;;;;;;17.79;29.45;101945.72;4944259;28;20074;-73
2022/03/10 12:19:19;;;;;;;13.18;7.03;;;;;;;17.99;29.72;101947.41;4948025;28;20058;-72
2022/03/10 12:21:46;;;;;;;12.40;6.95;;;;;;;17.93;29.88;101934.69;4948328;28;21435;-70
2022/03/10 12:24:13;;;;;;;15.15;7.03;;;;;;;17.91;30.05;101934.81;4941836;28;20143;-68
2022/03/10 12:26:43;;;;;;;15.57;7.10;;;;;;;18.24;30.03;101925.59;4944658;28;20046;-73
2022/03/10 12:29:12;;;;;;;13.23;6.35;;;;;;;18.20;29.38;101930.31;4940917;28;20346;-73
2022/03/10 12:31:41;;;;;;;15.48;7.35;;;;;;;18.37;28.96;101924.31;4943050;28;20054;-70
2022/03/10 12:36:49;;;;;;;14.50;6.93;;;;;;;18.76;28.58;101901.94;5068878;27;20861;-73
2022/03/10 12:39:18;;;;;;;12.32;6.53;;;;;;;18.78;30.23;101910.63;5066731;28;20048;-71
2022/03/10 12:41:48;;;;;;;14.05;6.90;;;;;;;18.50;29.95;101903.59;5070396;28;20040;-72
2022/03/10 12:44:18;;;;;;;15.88;7.60;;;;;;;18.35;29.73;101894.34;5065235;28;20094;-73
2022/03/10 12:46:45;;;;;;;16.25;7.68;;;;;;;18.37;30.44;101895.06;5063781;28;20131;-73
2022/03/10 12:49:19;;;;;;;14.50;7.32;;;;;;;18.30;30.37;101893.13;5062912;28;20044;-74
2022/03/10 12:51:47;;;;;;;14.88;7.38;;;;;;;18.85;30.24;101885.09;5067699;28;20052;-73
2022/03/10 12:54:15;;;;;;;16.77;8.27;;;;;;;19.06;28.90;101891.03;5068007;28;20056;-71
2022/03/10 12:56:46;;;;;;;12.75;6.97;;;;;;;18.87;29.44;101876.00;5064210;28;20048;-73
2022/03/10 12:59:15;;;;;;;15.73;7.57;;;;;;;18.21;29.94;101888.66;5071430;28;20118;-72
2022/03/10 13:01:42;;;;;;;14.27;6.50;;;;;;;18.14;30.48;101885.69;5075221;28;20136;-72
2022/03/10 13:04:13;;;;;;;15.20;7.18;;;;;;;17.97;30.62;101875.75;5038426;28;20044;-72
2022/03/10 13:06:40;;;;;;;14.73;6.55;;;;;;;18.02;31.34;101876.16;5026014;28;20084;-72
2022/03/10 13:09:08;;;;;;;15.45;6.85;;;;;;;17.86;30.59;101877.72;5042456;28;20037;-71
2022/03/10 13:11:37;;;;;;;17.73;6.95;;;;;;;18.11;30.72;101872.66;5030026;28;20053;-72
2022/03/10 13:14:06;;;;;;;16.55;7.20;;;;;;;18.23;30.47;101871.56;5029807;28;20137;-71
2022/03/10 13:16:34;;;;;;;13.88;7.15;;;;;;;17.95;30.10;101872.38;5031748;28;20053;-71
2022/03/10 13:19:01;;;;;;;14.43;6.93;;;;;;;18.14;30.45;101869.72;5033548;28;20045;-73
2022/03/10 13:21:27;;;;;;;13.38;7.20;;;;;;;18.13;30.08;101865.38;5024280;28;20120;-75
2022/03/10 13:23:54;;;;;;;12.13;6.55;;;;;;;18.19;29.96;101862.16;5029250;28;20048;-73
2022/03/10 13:26:24;;;;;;;22.10;7.75;;;;;;;18.76;30.10;101854.03;5033495;28;20037;-71
2022/03/10 13:28:51;;;;;;;17.05;6.72;;;;;;;19.15;28.53;101850.22;5027664;28;20037;-71
2022/03/10 13:31:18;;;;;;;15.02;6.90;;;;;;;19.12;28.15;101845.19;5030443;28;20049;-70
2022/03/10 13:33:45;;;;;;;10.48;5.45;;;;;;;19.01;27.42;101837.34;5026306;28;20635;-72
2022/03/10 13:36:12;;;;;;;14.95;7.30;;;;;;;19.04;27.61;101837.91;5031813;28;20060;-72
2022/03/10 13:38:39;;;;;;;18.08;7.63;;;;;;;19.18;28.67;101839.25;5028047;28;20052;-71
2022/03/10 13:41:06;;;;;;;16.38;7.53;;;;;;;18.79;27.67;101837.75;5026237;28;20048;-72
2022/03/10 13:43:38;;;;;;;11.85;6.00;;;;;;;18.90;28.28;101834.91;5025785;28;20049;-70
2022/03/10 13:46:11;;;;;;;;;;;;;;;18.82;27.62;101834.81;5024983;28;20039;-73
2022/03/10 13:48:46;;;;;;;21.27;7.45;;;;;;;18.86;28.11;101829.06;5016524;28;19959;-72
2022/03/10 13:51:13;;;;;;;16.88;7.55;;;;;;;18.74;28.07;101821.41;5016361;28;20053;-71
2022/03/10 13:53:40;;;;;;;15.23;6.82;;;;;;;18.74;27.94;101821.41;5016032;28;20140;-72
2022/03/10 13:56:07;;;;;;;18.77;8.05;;;;;;;18.39;28.34;101810.59;5016043;28;20503;-73
2022/03/10 13:58:34;;;;;;;14.00;7.43;;;;;;;18.89;28.04;101818.09;5017919;28;20140;-71
2022/03/10 14:01:07;;;;;;;16.33;7.57;;;;;;;18.69;28.36;101810.34;5025996;28;20045;-71
2022/03/10 14:03:34;;;;;;;18.27;7.00;;;;;;;18.87;27.69;101813.91;5021401;28;20046;-71
2022/03/10 14:06:01;;;;;;;14.90;7.38;;;;;;;18.98;27.47;101803.06;5014821;28;20045;-70
2022/03/10 14:08:29;;;;;;;16.70;7.40;;;;;;;18.88;27.39;101805.75;5010989;28;20042;-70
2022/03/10 14:11:04;;;;;;;15.50;7.35;;;;;;;19.03;27.66;101804.28;5011766;28;20049;-72
2022/03/10 14:13:34;;;;;;;12.32;6.30;;;;;;;18.96;27.65;101797.03;5017626;28;20065;-71
2022/03/10 14:16:03;;;;;;;16.88;6.82;;;;;;;19.16;27.95;101798.63;5011620;28;20041;-73
2022/03/10 14:18:30;;;;;;;19.63;7.18;;;;;;;19.05;26.86;101790.81;5010541;28;20136;-73
2022/03/10 14:21:04;;;;;;;19.98;8.15;;;;;;;18.77;26.92;101797.13;5014923;28;20045;-73
2022/03/10 14:23:31;;;;;;;15.48;7.95;;;;;;;18.79;26.53;101795.16;5015432;28;20065;-72
2022/03/10 14:25:59;;;;;;;15.38;7.38;;;;;;;19.13;26.99;101793.59;5008432;28;20038;-71
2022/03/10 14:28:27;;;;;;;17.70;7.50;;;;;;;18.93;26.63;101787.53;5016675;28;20041;-73
2022/03/10 14:30:53;;;;;;;17.15;7.88;;;;;;;18.87;25.42;101784.59;5010776;28;20077;-74
2022/03/10 14:33:21;;;;;;;13.07;6.70;;;;;;;18.88;26.14;101780.97;5012385;28;20045;-71
2022/03/10 14:35:48;;;;;;;14.57;7.80;;;;;;;18.82;26.43;101773.56;5008701;28;20046;-72
2022/03/10 14:38:16;;;;;;;16.23;7.78;;;;;;;18.84;25.85;101776.91;5012905;28;20048;-73
2022/03/10 14:40:43;;;;;;;13.55;7.25;;;;;;;19.02;25.63;101775.13;5013046;28;20127;-71
2022/03/10 14:43:10;;;;;;;16.42;8.77;;;;;;;18.95;25.29;101771.38;5008078;28;20117;-72
2022/03/10 14:45:38;;;;;;;14.60;7.57;;;;;;;18.89;25.90;101764.81;5016045;28;20049;-71
2022/03/10 14:48:05;;;;;;;14.55;7.75;;;;;;;18.43;26.06;101761.41;5006909;28;20136;-73
2022/03/10 14:50:34;;;;;;;14.07;6.97;;;;;;;18.68;25.36;101758.94;5010635;28;20050;-71
2022/03/10 14:53:02;;;;;;;13.18;6.65;;;;;;;18.97;24.71;101751.59;5013294;28;20124;-73
2022/03/10 14:55:28;;;;;;;16.35;7.93;;;;;;;18.42;25.72;101750.94;5013709;28;20057;-72
2022/03/10 14:57:55;;;;;;;21.73;7.43;;;;;;;18.35;25.65;101748.00;5011693;28;20045;-74
2022/03/10 15:00:22;;;;;;;15.52;6.43;;;;;;;18.46;24.44;101745.19;5014498;28;20048;-71
2022/03/10 15:02:48;;;;;;;14.80;6.70;;;;;;;18.00;24.87;101736.34;5011507;28;20042;-73
2022/03/10 15:05:15;;;;;;;12.63;6.38;;;;;;;17.94;24.86;101737.75;5012262;28;20069;-71
2022/03/10 15:07:43;;;;;;;11.65;5.75;;;;;;;17.83;24.89;101740.63;5040132;28;20108;-73
2022/03/10 15:10:11;;;;;;;12.80;6.53;;;;;;;17.74;25.14;101736.16;5013160;28;20049;-74
2022/03/10 15:12:38;;;;;;;15.88;6.63;;;;;;;17.74;24.57;101730.84;5009359;28;20056;-73
2022/03/10 15:15:06;;;;;;;16.23;6.10;;;;;;;17.85;24.95;101733.31;5014643;28;20049;-73
2022/03/10 15:17:32;;;;;;;13.40;6.15;;;;;;;17.66;24.67;101727.19;5014296;28;20057;-72
2022/03/10 15:19:59;;;;;;;14.93;6.35;;;;;;;17.65;25.31;101724.69;5005000;28;20038;-71
2022/03/10 15:22:26;;;;;;;12.10;5.38;;;;;;;17.73;25.35;101726.50;5015053;28;20120;-71
2022/03/10 15:24:54;;;;;;;11.23;5.35;;;;;;;17.61;24.61;101723.28;5010161;28;20056;-71
2022/03/10 15:27:21;;;;;;;11.55;5.47;;;;;;;17.39;24.62;101724.47;5016751;28;20041;-71
2022/03/10 15:29:50;;;;;;;6.90;3.97;;;;;;;17.31;24.58;101710.19;5008717;28;20046;-72
2022/03/10 15:32:17;;;;;;;16.80;4.15;;;;;;;17.23;25.35;101717.97;5014790;28;20037;-73
2022/03/10 15:34:43;;;;;;;8.23;4.47;;;;;;;17.39;24.82;101707.66;5008004;28;20045;-72
2022/03/10 15:37:10;;;;;;;9.13;4.50;;;;;;;17.32;25.00;101699.41;5012293;28;20048;-73
2022/03/10 15:39:37;;;;;;;8.80;5.00;;;;;;;17.20;24.94;101703.16;5014557;28;20055;-70
2022/03/10 15:42:06;;;;;;;9.43;4.20;;;;;;;16.97;25.24;101707.09;5041061;28;20053;-71
2022/03/10 15:44:33;;;;;;;8.63;3.97;;;;;;;17.01;25.64;101699.69;5018407;28;20037;-72
2022/03/10 15:47:00;;;;;;;6.47;3.78;;;;;;;16.91;25.08;101696.16;5021223;28;20644;-72
2022/03/10 15:49:26;;;;;;;7.05;3.15;;;;;;;16.89;24.76;101700.78;5021286;28;20086;-71
2022/03/10 15:51:53;;;;;;;5.35;2.80;;;;;;;16.82;24.76;101697.00;5011351;28;20459;-70
2022/03/10 15:54:21;;;;;;;5.70;2.95;;;;;;;16.79;25.53;101705.22;5007503;28;20041;-72
2022/03/10 15:56:48;;;;;;;8.43;2.90;;;;;;;16.66;24.83;101699.34;5009041;28;20136;-72
2022/03/10 15:59:16;;;;;;;6.60;2.83;;;;;;;16.54;25.51;101697.78;5011450;28;20077;-72
2022/03/10 16:01:43;;;;;;;6.57;2.92;;;;;;;16.43;24.82;101689.94;5004851;28;20049;-71
2022/03/10 16:04:11;;;;;;;5.32;2.55;;;;;;;16.38;24.79;101694.78;5002875;28;20037;-69
2022/03/10 16:06:38;;;;;;;6.50;2.88;;;;;;;16.38;25.20;101702.75;5010031;28;20068;-69
2022/03/10 16:09:05;;;;;;;6.13;2.40;;;;;;;16.24;25.76;101689.84;5009812;28;20045;-70
2022/03/10 16:11:31;;;;;;;6.05;2.70;;;;;;;16.18;25.82;101690.38;5011781;28;20041;-69
2022/03/10 16:13:58;;;;;;;4.13;2.40;;;;;;;16.16;25.14;101688.84;5017053;28;20045;-67
2022/03/10 16:16:26;;;;;;;8.55;2.58;;;;;;;16.10;25.73;101682.25;5045282;28;20050;-70
2022/03/10 16:18:53;;;;;;;3.08;1.88;;;;;;;16.02;25.88;101678.59;5010748;28;20129;-71
2022/03/10 16:21:19;;;;;;;4.57;2.38;;;;;;;15.96;26.22;101688.91;5007297;28;20072;-68
2022/03/10 16:23:46;;;;;;;4.70;2.30;;;;;;;15.80;26.00;101684.06;5003878;28;20091;-69
2022/03/10 16:26:14;;;;;;;4.38;1.83;;;;;;;15.68;26.31;101686.91;5003603;28;20038;-71
2022/03/10 16:28:41;;;;;;;6.47;2.80;;;;;;;15.57;26.67;101693.13;5022982;28;20433;-69
2022/03/10 16:31:07;;;;;;;4.35;2.40;;;;;;;15.50;28.11;101691.13;5008017;28;20594;-67
2022/03/10 16:33:35;;;;;;;10.98;2.63;;;;;;;15.38;26.15;101694.81;5012853;28;20051;-70
2022/03/10 16:36:02;;;;;;;4.03;2.28;;;;;;;15.33;27.15;101694.34;5004116;28;20078;-68
2022/03/10 16:38:28;;;;;;;7.63;2.72;;;;;;;15.20;27.75;101698.97;5006048;28;20041;-68
2022/03/10 16:40:57;;;;;;;4.75;2.22;;;;;;;15.18;27.80;101694.78;5002407;28;20139;-72
2022/03/10 16:43:24;;;;;;;5.45;3.03;;;;;;;15.12;27.89;101690.81;5013207;28;20041;-71
2022/03/10 16:45:50;;;;;;;5.10;2.70;;;;;;;15.01;28.65;101688.22;5007112;28;20056;-72
2022/03/10 16:48:17;;;;;;;3.65;2.00;;;;;;;14.81;28.78;101702.25;5009772;28;20056;-72
2022/03/10 16:50:45;;;;;;;6.45;2.60;;;;;;;14.72;28.48;101702.13;5006911;28;20042;-71
2022/03/10 16:53:12;;;;;;;4.68;2.10;;;;;;;14.59;28.98;101693.53;5034083;28;20050;-72
2022/03/10 16:55:39;;;;;;;5.25;2.55;;;;;;;14.58;29.13;101694.50;5006872;28;20066;-72
2022/03/10 16:58:05;;;;;;;5.43;2.30;;;;;;;14.45;28.00;101693.78;5007624;28;20042;-71
2022/03/10 17:00:32;;;;;;;5.22;2.10;;;;;;;14.39;28.98;101704.03;5006535;28;20083;-71
2022/03/10 17:02:59;;;;;;;3.45;2.13;;;;;;;14.29;29.20;101692.50;5007625;28;20057;-71
2022/03/10 17:05:25;;;;;;;7.78;2.38;;;;;;;14.19;28.50;101702.09;5007027;28;20081;-72
2022/03/10 17:07:54;;;;;;;4.10;2.20;;;;;;;14.15;28.63;101695.41;5008370;28;20095;-70
2022/03/10 17:10:21;;;;;;;3.53;1.80;;;;;;;14.06;28.64;101701.38;5007547;28;20064;-71
2022/03/10 17:12:48;;;;;;;4.40;2.17;;;;;;;13.98;29.16;101701.94;5012208;28;20056;-70
2022/03/10 17:15:16;;;;;;;8.15;1.75;;;;;;;13.86;30.35;101702.06;5004726;28;20131;-71
2022/03/10 17:17:42;;;;;;;4.10;2.22;;;;;;;13.79;29.43;101695.56;5005766;28;20045;-71
2022/03/10 17:20:10;;;;;;;3.00;1.60;;;;;;;13.77;29.83;101695.69;5005865;28;20129;-73
2022/03/10 17:22:37;;;;;;;4.78;2.13;;;;;;;13.70;30.52;101688.34;5005907;28;20046;-71
2022/03/10 17:25:06;;;;;;;4.03;2.20;;;;;;;13.65;30.37;101693.16;5046091;28;20041;-71
2022/03/10 17:27:33;;;;;;;6.30;1.90;;;;;;;13.32;31.47;101693.09;5006874;28;20054;-70
2022/03/10 17:29:59;;;;;;;3.38;1.83;;;;;;;13.06;31.79;101696.81;5008762;28;20045;-71
2022/03/10 17:32:26;;;;;;;3.88;2.20;;;;;;;12.91;31.85;101694.47;5011514;28;20049;-71
2022/03/10 17:34:52;;;;;;;4.15;1.95;;;;;;;12.79;32.32;101693.53;5038945;28;20107;-70
2022/03/10 17:37:19;;;;;;;4.95;2.25;;;;;;;12.67;32.49;101706.78;5012857;28;20041;-72
2022/03/10 17:39:46;;;;;;;6.63;1.80;;;;;;;12.42;33.34;101706.03;5011317;28;20146;-71
2022/03/10 17:42:14;;;;;;;8.60;1.80;;;;;;;12.10;34.88;101702.19;5013328;28;20052;-71
2022/03/10 17:44:41;;;;;;;3.88;2.00;;;;;;;11.87;34.68;101713.47;5011746;28;20057;-70
2022/03/10 17:47:08;;;;;;;3.75;2.08;;;;;;;11.86;35.47;101703.88;5008435;28;20144;-72
2022/03/10 17:49:37;;;;;;;3.85;1.85;;;;;;;11.73;35.96;101708.31;5009324;28;20050;-71
2022/03/10 17:52:04;;;;;;;6.80;2.13;;;;;;;11.67;35.56;101707.88;5006767;28;20156;-71
2022/03/10 17:54:31;;;;;;;4.93;2.17;;;;;;;11.46;36.89;101710.16;5006160;28;20042;-69
2022/03/10 17:56:58;;;;;;;3.22;1.95;;;;;;;11.28;37.11;101706.13;5012279;28;20041;-72
2022/03/10 17:59:27;;;;;;;3.20;1.88;;;;;;;11.18;37.81;101708.63;5008310;28;20073;-70
2022/03/10 18:01:53;;;;;;;4.78;2.55;;;;;;;11.18;37.94;101703.38;5013927;28;20124;-70
2022/03/10 18:04:21;;;;;;;4.93;2.60;;;;;;;11.10;38.56;101703.03;5010833;28;20072;-70
2022/03/10 18:06:48;;;;;;;8.43;2.60;;;;;;;10.88;39.02;101710.63;5008871;28;22297;-70
2022/03/10 18:09:15;;;;;;;4.57;2.60;;;;;;;10.86;39.51;101709.91;5003369;28;20037;-69
2022/03/10 18:11:42;;;;;;;6.55;3.10;;;;;;;11.10;38.56;101709.13;5039521;28;20045;-71
2022/03/10 18:14:09;;;;;;;5.93;2.83;;;;;;;10.94;38.89;101710.25;5005931;28;20052;-71
2022/03/10 18:16:38;;;;;;;10.40;3.38;;;;;;;10.85;40.10;101706.41;5012601;28;20099;-70
2022/03/10 18:19:04;;;;;;;8.10;3.30;;;;;;;10.73;39.06;101706.38;5011293;28;20041;-70
2022/03/10 18:21:43;;;;;;;5.82;3.17;;;;;;;10.65;40.50;101703.38;5009049;28;20053;-73
2022/03/10 18:24:10;;;;;;;10.75;3.38;;;;;;;10.80;40.12;101703.25;4999906;28;20064;-71
2022/03/10 18:26:37;;;;;;;3.65;2.42;;;;;;;10.77;40.21;101695.56;5014508;28;20060;-70
2022/03/10 18:29:06;;;;;;;5.13;2.25;;;;;;;10.67;40.08;101701.50;5036262;28;20028;-72
2022/03/10 18:31:32;;;;;;;6.18;3.50;;;;;;;10.78;39.86;101699.88;5023297;28;20049;-71
2022/03/10 18:34:00;;;;;;;6.00;3.08;;;;;;;10.93;39.29;101701.50;5013765;28;20605;-70
2022/03/10 18:36:27;;;;;;;6.07;3.25;;;;;;;10.95;40.25;101693.53;5009712;28;20045;-73
2022/03/10 18:38:54;;;;;;;5.28;2.70;;;;;;;11.12;38.58;101688.84;5007986;28;20584;-70
2022/03/10 18:41:23;;;;;;;5.00;2.90;;;;;;;11.05;38.61;101691.97;5007752;28;20171;-71
2022/03/10 18:43:51;;;;;;;6.75;3.30;;;;;;;11.00;39.46;101694.06;5009755;28;20037;-70
2022/03/10 18:46:18;;;;;;;7.53;2.53;;;;;;;11.10;38.41;101687.25;5008660;28;20103;-72
2022/03/10 18:48:45;;;;;;;6.05;3.15;;;;;;;11.04;39.86;101698.19;5012265;28;20524;-71
2022/03/10 18:51:13;;;;;;;4.75;2.90;;;;;;;11.10;39.16;101682.00;5011937;28;20052;-71
2022/03/10 18:53:39;;;;;;;4.68;2.63;;;;;;;11.00;39.39;101683.53;5011981;28;20046;-71
2022/03/10 18:56:08;;;;;;;5.93;2.58;;;;;;;11.09;38.92;101682.94;5035766;28;20050;-71
2022/03/10 18:58:35;;;;;;;4.57;2.38;;;;;;;10.94;38.71;101681.34;5008185;28;20145;-71
2022/03/10 19:01:01;;;;;;;6.07;2.95;;;;;;;10.86;39.96;101683.63;5011651;28;20054;-71
2022/03/10 19:03:28;;;;;;;6.25;2.92;;;;;;;10.91;39.97;101678.88;5014192;28;20129;-71
2022/03/10 19:05:54;;;;;;;6.80;2.42;;;;;;;10.73;39.50;101690.59;5009861;28;20071;-74
2022/03/10 19:08:22;;;;;;;3.72;2.47;;;;;;;10.85;38.76;101684.56;5013275;28;20045;-69
2022/03/10 19:10:50;;;;;;;4.32;2.95;;;;;;;10.60;40.34;101681.84;5008101;28;20042;-72
2022/03/10 19:13:17;;;;;;;5.47;2.67;;;;;;;10.43;39.96;101687.31;5011361;28;20052;-71
2022/03/10 19:15:45;;;;;;;5.00;2.67;;;;;;;10.25;40.37;101691.09;5004619;28;20076;-72
2022/03/10 19:18:11;;;;;;;5.00;2.33;;;;;;;10.29;40.65;101687.34;5010692;28;20069;-71
2022/03/10 19:20:38;;;;;;;6.32;2.80;;;;;;;10.27;39.85;101683.97;5007556;28;20183;-70
2022/03/10 19:23:04;;;;;;;4.68;2.55;;;;;;;10.11;41.09;101685.88;5004468;28;20048;-73
2022/03/10 19:25:33;;;;;;;5.25;2.95;;;;;;;9.98;40.54;101684.94;5008544;28;20053;-72